Tiempo atmosférico en la estación meteorológica de Bardenas Reales, Base Aérea, Navarra (295 m.)



Fecha
DESCASC
Temp. máxima en grados centígrados (hora)
DESCASC
Temp. mínima en grados centígrados (hora)
DESCASC
Temp. media en grados centígrados
DESCASC
Racha de viento máxima en m/sg (hora)
DESCASC
Velocidad máxima media en intervalos de 10 minutos(hora)
DESCASC
Precipitaciones diarias en mm
DESCASC
Precipitaciones de 00:00 a 06:00 en mm
DESCASC
Precipitaciones de 06:00 a 12:00 en mm
DESCASC
Precipitaciones de 12:00 a 18:00 en mm
DESCASC
Precipitaciones de 18:00 a 24:00 en mm
DESCASC
28-02-2021 12.6 (16:00) 6.7 (07:40) 9.7 14.17 (17:00) 9.17 (17:00) 0 0 0 0 0
27-02-2021 16.3 (16:20) 6.6 (06:00) 11.4 16.11 (11:40) 11.94 (11:40) 0 0 0 0 0
26-02-2021 17.4 (14:50) 3.7 (07:00) 10.5 4.44 (14:10) 3.33 (23:50) 0 0 0 0 0
25-02-2021 15.8 (16:30) 6 (00:00) 10.9 8.33 (03:40) 6.11 (03:40) 0 0 0 0 0
24-02-2021 17.1 (16:00) 7.4 (00:00) 12.3 13.06 (12:40) 9.44 (12:00) 0 0 0 0 0
23-02-2021 16.1 (16:00) 5.8 (00:00) 11 13.06 (16:20) 10 (16:20) 0 0 0 0 0
22-02-2021 13.1 (00:50) 5.2 (00:00) 9.2 17.5 (06:30) 12.22 (07:20) 10 7.6 2.2 0.2 0
21-02-2021 14.5 (15:10) 8.7 (00:00) 11.6 18.33 (00:10) 13.61 (00:10) 0 0 0 0 0
20-02-2021 18 (16:30) 7.1 (00:00) 12.5 20.28 (21:40) 15.28 (21:30) 0 0 0 0 0
19-02-2021 20.4 (15:40) 6.5 (00:00) 13.4 12.78 (23:20) 10 (23:20) 0 0 0 0 0
18-02-2021 19.2 (16:30) 7.8 (00:00) 13.5 11.39 (05:30) 8.33 (05:20) 0 0 0 0 0
17-02-2021 15.9 (17:20) 4.3 (00:00) 10.1 9.72 (17:50) 7.22 (23:59) 0 0 0 0 0
16-02-2021 15.7 (15:10) 7.2 (00:00) 11.4 11.39 (00:20) 8.33 (14:50) 0 0 0 0 0
15-02-2021 11.5 (17:20) 6.7 (00:00) 9.1 12.78 (23:20) 8.61 (23:00) 0 0 0 0 0
14-02-2021 13.7 (15:50) 1.8 (00:00) 7.7 14.44 (15:10) 11.67 (17:30) 0 0 0 0 0
13-02-2021 13.2 (14:30) 5.7 (00:00) 9.4 11.67 (00:50) 9.17 (00:50) 0 0 0 0 0
12-02-2021 14.6 (15:40) 8.4 (00:00) 11.5 14.17 (15:50) 11.39 (15:50) 2.4 0 2 0.4 0
11-02-2021 17.5 (16:10) 2.4 (00:00) 10 7.22 (23:59) 5.83 (23:59) 0 0 0 0 0
10-02-2021 14.3 (16:40) 4 (00:00) 9.2 15 (14:40) 10.83 (14:40) 0.4 0.2 0.2 0 0
09-02-2021 10.5 (12:50) 3.9 (00:00) 7.2 14.17 (14:40) 10.28 (14:40) 1.2 0 0 1.2 0
08-02-2021 14 (15:00) 5.1 (00:00) 9.5 13.06 (16:30) 6.39 (08:00) 0.6 0 0 0.6 0
07-02-2021 11.9 (16:10) 3.5 (00:00) 7.7 13.06 (08:30) 9.17 (11:40) 0 0 0 0 0
06-02-2021 11.9 (12:20) 6.3 (00:00) 9.1 12.78 (18:20) 9.17 (18:20) 8.4 3.8 4.2 0.2 0.2
05-02-2021 15 (14:40) 7.2 (00:00) 11.1 8.61 (00:10) 6.39 (00:10) 0 0 0 0 0
04-02-2021 18.1 (15:40) 10.1 (00:00) 14.1 10 (17:10) 7.22 (16:00) 0 0 0 0 0
03-02-2021 18.4 (15:40) 7.2 (00:00) 12.8 11.39 (14:30) 8.33 (14:30) 0 0 0 0 0
02-02-2021 19.5 (15:10) 3.8 (08:10) 11.6 11.11 (15:30) 8.89 (15:30) 0 0 0 0 0
01-02-2021 16.7 (13:40) 7 (00:00) 11.9 21.39 (01:20) 14.72 (00:50) 0 0 0 0 0
31-01-2021 16.7 (15:40) 7 (00:00) 11.9 12.78 (02:50) 8.61 (03:00) 0.2 0 0 0.2 0

Gráficas

Temp. máximas Temp. mínimas Temp. medias Precipitaciones Rachas de viento máximas Velocidades máximas media en intervalos de 10 minutos

Datos horarios

Fecha y hora oficial Temperatura (ºC) Velocidad del viento (km/h) Dirección del viento Racha (km/h) Dirección de racha Precipitación (mm) Presión (hPa) Tendencia (hPa) Humedad (%)
2021-03-01 23:00:00 10.2 19 Sudeste 25 Sudeste 0 989.3 0 73
2021-03-01 22:00:00 10.9 19 Sudeste 30 Sudeste 0 988.8 0.4 69
2021-03-01 21:00:00 10.6 11 Sudeste 19 Sur 0 989.1 1.1 74
2021-03-01 20:00:00 11.4 10 Sur 30 Sudeste 0 989.3 1.4 69
2021-03-01 19:00:00 11.5 19 Sudeste 30 Sudeste 0 988.4 0.8 69
2021-03-01 18:00:00 12 20 Sudeste 37 Sudeste 0 988 0.2 67
2021-03-01 17:00:00 12.6 23 Sudeste 39 Sudeste 0 987.9 -0.2 63
2021-03-01 16:00:00 13 27 Sudeste 39 Sudeste 0 987.6 -- 58
2021-03-01 15:00:00 13.3 29 Sudeste 39 Sudeste 0 987.8 -- 58
2021-03-01 14:00:00 12.8 28 Sudeste 40 Sudeste 0 988.1 -- 60
2021-03-01 13:00:00 13.1 27 Sudeste 49 Sudeste 0 988.8 -- 61
2021-03-01 12:00:00 13 30 Este 46 Este 0 989 -- 60
2021-03-01 11:00:00 11.6 31 Este 48 Sudeste 0 989.1 -- 67
2021-03-01 10:00:00 10.4 26 Este 43 Este 0 988.9 -- 71
2021-03-01 09:00:00 9.4 21 Este 32 Este 0 989.2 -- 76
2021-03-01 08:00:00 8.6 18 Este 33 Este 0 988.9 -- 81
2021-03-01 07:00:00 9 24 Este 39 Este 0 988.6 -- 80
2021-03-01 06:00:00 8.9 20 Este 26 Este 0 988.5 -- 82
2021-03-01 05:00:00 8.9 19 Este 32 Este 0 988.3 -- 82
2021-03-01 04:00:00 8.2 12 Este 18 Este 0 988.3 -- 85
2021-03-01 03:00:00 7.5 13 Este 19 Este 0 988.5 -- 86
2021-03-01 02:00:00 7 12 Este 21 Este 0 988.5 -- 87
2021-03-01 01:00:00 7.5 13 Este 26 Sudeste 0 988.2 -- 82
2021-03-01 00:00:00 9.7 20 Este 34 Este 0 987.9 -- 69
2021-02-28 23:00:00 10.1 25 Este 36 Este 0 987.5 -- 68
2021-02-28 22:00:00 10.2 26 Este 42 Este 0 986.9 -- 71
2021-02-28 21:00:00 10.7 28 Este 39 Este 0 986.6 -- 74
2021-02-28 20:00:00 10.9 21 Este 36 Este 0 986.1 -- 80
2021-02-28 19:00:00 11.1 22 Este 41 Este 0 985.6 -- 79
2021-02-28 18:00:00 11.7 29 Este 49 Este 0 985.3 -- 78
2021-02-28 17:00:00 11.6 33 Este 51 Este 0 985.4 -- 79
2021-02-28 16:00:00 12.6 22 Este 32 Este 0 985.7 -- 75
2021-02-28 15:00:00 10.9 19 Sudeste 28 Sudeste 0 986.4 -- 78
2021-02-28 14:00:00 9.9 18 Sudeste 25 Este 0 987 -- 82
2021-02-28 13:00:00 9 15 Este 20 Este 0 987.9 -- 85
2021-02-28 12:00:00 8.3 6 Este 9 Nordeste 0 988.3 -- 83
2021-02-28 11:00:00 7.3 4 Sudeste -- -- 0 988.3 -- 80
2021-02-28 10:00:00 7.2 5 Sudoeste 7 Sudoeste 0 988.1 -- 82
2021-02-28 09:00:00 6.8 4 Sudoeste 6 Sur 0 988.1 -- 85
2021-02-28 08:00:00 6.7 3 Noroeste 7 Noroeste 0 987.8 -- 85
2021-02-28 07:00:00 7.1 4 Noroeste 10 Noroeste 0 987.9 -- 79
2021-02-28 06:00:00 7.1 8 Oeste 11 Oeste 0 987.8 -- 78
2021-02-28 05:00:00 7.1 6 Noroeste 11 Noroeste 0 987.9 -- 76
2021-02-28 04:00:00 7.2 8 Noroeste 18 Noroeste 0 988.3 -- 75
2021-02-28 03:00:00 7.3 14 Noroeste 19 Oeste 0 988.6 -- 73
2021-02-28 02:00:00 7.5 11 Noroeste 23 Noroeste 0 989 -- 71
2021-02-28 01:00:00 7.4 15 Noroeste 31 Noroeste 0 988.7 -- 73
2021-02-28 00:00:00 7.5 24 Noroeste 37 Oeste 0 988.6 -- 71
2021-02-27 23:00:00 7.8 28 Oeste 42 Noroeste 0 988.6 -- 68
2021-02-27 22:00:00 8.4 28 Noroeste 44 Noroeste 0 988.3 -- 67
2021-02-27 21:00:00 9 32 Noroeste 49 Noroeste 0 987.7 -- 67
2021-02-27 20:00:00 10.1 39 Noroeste 53 Noroeste 0 987.4 -- 63
2021-02-27 19:00:00 11.6 35 Noroeste 56 Noroeste 0 987.2 -- 58
2021-02-27 18:00:00 14 38 Noroeste 50 Noroeste 0 987 -- 50
2021-02-27 17:00:00 15.7 33 Noroeste 46 Noroeste 0 987.5 -- 40
2021-02-27 16:00:00 15.9 33 Noroeste 45 Noroeste 0 988 -- 38
2021-02-27 15:00:00 15.8 32 Noroeste -- -- -- 988.8 -- 39
2021-02-27 14:00:00 15.3 37 Noroeste 53 Noroeste 0 989.6 -- 40
2021-02-27 13:00:00 14.3 37 Noroeste 56 Noroeste 0 990.7 -- 46
2021-02-27 12:00:00 13.3 41 Noroeste 58 Noroeste 0 991.3 -- 54
2021-02-27 11:00:00 12.5 39 Noroeste 55 Noroeste 0 991.6 -- 61
2021-02-27 10:00:00 11.3 38 Noroeste 52 Noroeste 0 991.7 -- 69
2021-02-27 09:00:00 9.4 28 Noroeste 38 Noroeste 0 991.8 -- 76
2021-02-27 08:00:00 8.2 22 Noroeste 30 Noroeste 0 991.9 -- 80
2021-02-27 07:00:00 7.2 14 Noroeste 23 Noroeste 0 992 -- 85
2021-02-27 06:00:00 6.6 5 Norte 20 Oeste 0 992.2 -- 85
2021-02-27 05:00:00 7.4 7 Noroeste 23 Oeste 0 992.4 -- 85
2021-02-27 04:00:00 7.8 17 Oeste 23 Oeste 0 992.6 -- 85
2021-02-27 03:00:00 7.6 11 Noroeste 18 Oeste 0 993.1 -- 88
2021-02-27 02:00:00 8 6 Oeste 16 Oeste 0 993.3 -- 87
2021-02-27 01:00:00 8.3 11 Oeste 15 Oeste 0 993.4 -- 87
2021-02-27 00:00:00 8.5 9 Oeste 15 Oeste 0 993.5 -- 86
2021-02-26 23:00:00 9.3 9 Oeste 12 Oeste 0 993.5 -- 84
2021-02-26 22:00:00 10.8 4 Noroeste 13 Noroeste 0 993.1 -- 77
2021-02-26 21:00:00 11.9 7 Noroeste 15 Oeste 0 992.9 -- 77
2021-02-26 20:00:00 12.7 9 Sudoeste 10 Sudoeste 0 993 -- 73
2021-02-26 19:00:00 14.4 9 Sudoeste 12 Sudoeste 0 992.9 -- 68
2021-02-26 18:00:00 16.3 7 Oeste 12 Sudoeste 0 992.7 -- 57
2021-02-26 17:00:00 17.1 9 Sudoeste 13 Sudoeste 0 992.9 -- 54
2021-02-26 16:00:00 17.2 5 Sudoeste 15 Noroeste 0 993.1 -- 54
2021-02-26 15:00:00 17.3 5 Sudoeste 16 Oeste 0 993.7 -- 57
2021-02-26 14:00:00 15.7 5 Sur 15 Sudoeste 0 994.5 -- 62
2021-02-26 13:00:00 14.5 6 Sudoeste 15 Oeste 0 995.3 -- 68
2021-02-26 12:00:00 12.3 5 Oeste 10 Sudoeste 0 995.8 -- 83
2021-02-26 11:00:00 8.7 0 Calma 8 Sur 0 996 -- --
2021-02-26 10:00:00 6.2 0 Calma 4 Norte 0 996 -- --
2021-02-26 09:00:00 4.7 0 Calma 5 Norte 0 995.8 -- --
2021-02-26 08:00:00 3.7 2 Noroeste 5 Noroeste 0 995.3 -- --
2021-02-26 07:00:00 3.7 4 Noroeste 5 Noroeste 0 995.2 -- --
2021-02-26 06:00:00 4.1 0 Calma 3 Nordeste 0 995.2 -- 100
2021-02-26 05:00:00 5 4 Nordeste 5 Nordeste 0 995.1 -- 100
2021-02-26 04:00:00 6.1 2 Este 5 Sudoeste 0 995.3 -- 100
2021-02-26 03:00:00 6.6 3 Sur 8 Sur 0 995.4 -- 98
2021-02-26 02:00:00 6.9 0 Calma 6 Sur 0 995.4 -- 96
2021-02-26 01:00:00 6.8 4 Sur 6 Sur 0 995.5 -- 95
2021-02-26 00:00:00 7.6 4 Oeste 5 Oeste 0 995.2 -- 90
2021-02-25 23:00:00 8 3 Nordeste 5 Norte 0 995 -- 89
2021-02-25 22:00:00 8.7 5 Norte 7 Noroeste 0 994.7 -- 87
2021-02-25 21:00:00 9.5 4 Noroeste 8 Norte 0 994.5 -- 84
2021-02-25 20:00:00 11.3 5 Norte 6 Norte 0 994 -- 79
2021-02-25 19:00:00 12.4 6 Sudoeste 11 Sudoeste 0 993.5 -- 74
2021-02-25 18:00:00 14 8 Sudoeste 16 Sudeste 0 993.1 -- 69
2021-02-25 17:00:00 15.4 10 Sudeste 19 Sudeste 0 993 -- 58
2021-02-25 16:00:00 15.5 9 Sur 19 Sudeste 0 993.1 -- 56
2021-02-25 15:00:00 15 13 Sudeste 23 Este 0 993.5 -- 59
2021-02-25 14:00:00 14.3 13 Sudeste 23 Este 0 994.1 -- 59
2021-02-25 13:00:00 12.7 16 Este 23 Este 0 994.9 -- 67
2021-02-25 12:00:00 11.4 17 Este 22 Este 0 995.4 -- 73
2021-02-25 11:00:00 10.6 17 Este 23 Este 0 995.5 -- 77
2021-02-25 10:00:00 9.5 15 Este 21 Este 0 995.1 -- 84
2021-02-25 09:00:00 8.1 16 Este 22 Este 0 994.6 -- 88
2021-02-25 08:00:00 6.6 15 Sudeste 23 Este 0 993.9 -- 95
2021-02-25 07:00:00 7 13 Este 23 Sudeste 0 994.1 -- 94
2021-02-25 06:00:00 6.7 15 Sudeste 19 Sudeste 0 994 -- 93
2021-02-25 05:00:00 7.6 13 Sudeste 23 Sudeste 0 994 -- 92
2021-02-25 04:00:00 7.7 15 Sudeste 30 Este 0 993.8 -- 92
2021-02-25 03:00:00 8.1 12 Este 27 Sudeste 0 994.1 -- 89
2021-02-25 02:00:00 8.9 17 Sudeste 23 Este 0 993.8 -- 88
2021-02-25 01:00:00 9.6 12 Sudeste 19 Sur 0 993.9 -- 88
2021-02-25 00:00:00 9.9 14 Sudeste 24 Sudeste 0 993.8 -- 92
2021-02-24 23:00:00 10.1 9 Sudeste 19 Este 0 993.9 -- 89
2021-02-24 22:00:00 10.3 10 Sudeste 21 Este 0 994.1 -- 86
2021-02-24 21:00:00 10.9 17 Este 22 Este 0 994 -- 84
2021-02-24 20:00:00 11.9 19 Este 21 Este 0 993.8 -- 80
2021-02-24 19:00:00 13.7 10 Este 22 Este 0 993.6 -- 74
2021-02-24 18:00:00 15.8 19 Este 38 Este 0 993.2 -- 69
2021-02-24 17:00:00 16.7 26 Este 39 Este 0 993.2 -- 65
2021-02-24 16:00:00 16.9 28 Este 40 Este 0 993.9 -- 63
2021-02-24 15:00:00 16.6 28 Este 44 Este 0 994.6 -- 65
2021-02-24 14:00:00 16 28 Este 40 Este 0 995.6 -- 65
2021-02-24 13:00:00 14.6 32 Sudeste 47 Sudeste 0 996.6 -- 68
2021-02-24 12:00:00 13 34 Este 44 Este 0 997.3 -- 76
2021-02-24 11:00:00 12.3 24 Sudeste 33 Este 0 997.9 -- 83
2021-02-24 10:00:00 11.2 20 Sudeste 26 Sudeste 0 998 -- 88
2021-02-24 09:00:00 9 14 Sudeste 19 Este 0 998 -- 100
2021-02-24 08:00:00 7.8 14 Este 18 Este 0 997.7 -- 100
2021-02-24 07:00:00 8 11 Este 24 Este 0 997.8 0.1 99
2021-02-24 06:00:00 8.2 16 Este 25 Este 0 997.7 -0.4 100
2021-02-24 05:00:00 8.5 17 Este 23 Este 0 997.5 -- 96
2021-02-24 04:00:00 8 15 Este 23 Este 0 997.7 -- 96
2021-02-24 03:00:00 8.2 14 Sudeste 29 Este 0 998.1 -- 94
2021-02-24 02:00:00 8 13 Este 22 Este 0 998.5 -0.4 93
2021-02-24 01:00:00 8.4 19 Este 22 Este 0 998.7 -- 90
2021-02-24 00:00:00 8.9 15 Este 22 Este 0 998.8 -- 87
2021-02-23 23:00:00 9.3 17 Este 23 Este 0 998.9 -- 84
2021-02-23 22:00:00 10.7 9 Este 18 Este 0 998.7 -- 79
2021-02-23 21:00:00 10.8 15 Este 19 Este 0 998.2 1.6 79
2021-02-23 20:00:00 10.9 13 Este 19 Este 0 998 -- 81
2021-02-23 19:00:00 12.9 14 Este 34 Sudeste 0 997.3 -- 73
2021-02-23 18:00:00 15.1 26 Sudeste 39 Sudeste 0 996.6 -- 59
2021-02-23 17:00:00 15.8 32 Sudeste 47 Sudeste 0 996.4 -- 54
2021-02-23 16:00:00 16.1 29 Este 46 Sudeste 0 996.6 -- 55
2021-02-23 15:00:00 15.4 29 Sudeste 46 Sudeste 0 996.8 -- 56
2021-02-23 14:00:00 14.9 28 Sudeste 39 Sudeste 0 997.3 -- 56
2021-02-23 13:00:00 13.6 28 Sudeste 36 Sudeste 0 997.9 -- 60
2021-02-23 12:00:00 12.3 26 Sudeste 37 Sudeste 0 998.1 -- 66
2021-02-23 11:00:00 11.9 21 Sudeste 30 Sudeste 0 997.8 -- 69
2021-02-23 10:00:00 9.3 16 Este 21 Este 0 997.5 -- 85
2021-02-23 09:00:00 7.3 9 Este 20 Este 0 996.9 -- 97
2021-02-23 08:00:00 6 13 Sudeste 21 Este 0 995.8 -- 100
2021-02-23 07:00:00 7.4 12 Este 18 Este 0 995.2 -- 98
2021-02-23 06:00:00 7.8 6 Este 11 Este 0 994.8 -- 95
2021-02-23 05:00:00 7.5 3 Sudeste 10 Sudeste 0 993.9 -- 98
2021-02-23 04:00:00 7.3 5 Este 7 Este 0 993.6 -- 100
2021-02-23 03:00:00 7.2 5 Sur 14 Este 0 993.1 -- 100
2021-02-23 02:00:00 7 10 Este 15 Este 0 992.4 -- 100
2021-02-23 01:00:00 6.7 6 Este 8 Este 0 991.8 -- 95
2021-02-23 00:00:00 7.7 3 Este 8 Este 0 991.1 -- 90
2021-02-22 23:00:00 8.3 5 Noroeste 10 Norte 0 990.7 -- 89
2021-02-22 22:00:00 8.4 5 Noroeste 24 Noroeste 0 989.9 -- 88
2021-02-22 21:00:00 8.2 9 Noroeste 27 Noroeste 0 989.1 -- 90
2021-02-22 20:00:00 8.3 20 Noroeste 35 Noroeste 0 988.4 -- 89
2021-02-22 19:00:00 8.2 26 Noroeste 39 Noroeste 0 987.2 -- 90
2021-02-22 18:00:00 8.3 21 Noroeste 30 Oeste 0.2 985.8 -- 90
2021-02-22 17:00:00 8 20 Noroeste 37 Oeste 0 985 -- 91
2021-02-22 16:00:00 8.2 27 Noroeste 41 Oeste 0 984.1 -- 84
2021-02-22 15:00:00 7.7 25 Oeste 42 Oeste 0 983.4 -- 87
2021-02-22 14:00:00 7.2 26 Oeste 41 Oeste 0 983.1 -- 88
2021-02-22 13:00:00 6.5 27 Noroeste 40 Oeste 0 983 -- 90
2021-02-22 12:00:00 5.7 26 Noroeste 36 Noroeste 0 982.5 -- 92
2021-02-22 11:00:00 5.5 25 Noroeste 42 Oeste 0 982.3 -- 92
2021-02-22 10:00:00 5.4 29 Noroeste 42 Oeste 0.2 980.9 -- 95
2021-02-22 09:00:00 5.2 30 Noroeste 53 Noroeste 0.6 979.6 -- 98
2021-02-22 08:00:00 5.2 37 Noroeste 62 Oeste 1.4 977.7 -- 98
2021-02-22 07:00:00 6 39 Oeste 63 Oeste 0 975.7 3.5 94
2021-02-22 06:00:00 6.8 39 Noroeste 53 Noroeste 0.8 974.6 -- 97
2021-02-22 05:00:00 10.3 13 Sudoeste 28 Sudoeste 5 973.4 -- 99
2021-02-22 04:00:00 11.2 15 Este 33 Este 1.6 972.2 -- 86
2021-02-22 03:00:00 11.5 28 Este 42 Este 0.2 972.5 -- 83
2021-02-22 02:00:00 12.5 25 Este 42 Este 0 972.7 -- 71
2021-02-22 01:00:00 13 31 Este 49 Este 0 972.8 -- 66
2021-02-22 00:00:00 13 32 Este 52 Este 0 972.9 -- 65
2021-02-21 23:00:00 12.9 32 Este 54 Este 0 973 -- 66
2021-02-21 22:00:00 13 37 Este 59 Este 0 972.6 0.6 65
2021-02-21 21:00:00 13.2 33 Este 46 Este 0 972.8 -- 66
2021-02-21 20:00:00 13.5 25 Este 40 Este 0 972.7 -- 66
2021-02-21 19:00:00 13.5 23 Este 45 Este 0 972 -- 67
2021-02-21 18:00:00 13.9 32 Este 50 Sudeste 0 971.7 -- 64
2021-02-21 17:00:00 14.1 31 Este 50 Este 0 971.9 -- 63
2021-02-21 16:00:00 13.5 29 Este 58 Sudeste 0 972.4 -- 65
2021-02-21 15:00:00 14.2 32 Este 55 Sudeste 0 972.4 -- 61
2021-02-21 14:00:00 14.1 39 Sudeste 64 Este 0 973.2 -- 59
2021-02-21 13:00:00 13.3 28 Este 53 Sudeste 0 974.2 -- 60
2021-02-21 12:00:00 13.7 37 Este 53 Este 0 974.2 -- 55
2021-02-21 11:00:00 13.3 36 Sudeste 55 Este 0 974.7 -- 54
2021-02-21 10:00:00 12.2 22 Sudeste 33 Este 0 975.3 -- 54
2021-02-21 09:00:00 9.9 12 Este 21 Este 0 975.5 -- 61
2021-02-21 08:00:00 9.2 9 Nordeste 19 Sudeste 0 975.8 -- 65
2021-02-21 07:00:00 8.9 6 Nordeste 26 Noroeste 0 976.1 -- 67
2021-02-21 06:00:00 9 6 Este 20 Este 0 976.5 -- 67
2021-02-21 05:00:00 9.4 12 Nordeste 23 Este 0 976.9 -- 63
2021-02-21 04:00:00 9.8 8 Nordeste 24 Sudeste 0 977.3 -- 62
2021-02-21 03:00:00 10.2 17 Este 40 Este 0 977.5 -- 60
2021-02-21 02:00:00 10.4 33 Este 55 Este 0 977.4 -- 61
2021-02-21 01:00:00 11.1 39 Este 66 Este 0 977.4 -- 58
2021-02-21 00:00:00 11.1 47 Este 68 Este 0 977 -- 61
2021-02-20 23:00:00 11.3 48 Este 71 Este 0 976.9 -- 62
2021-02-20 22:00:00 11.7 50 Este 73 Este 0 976.8 -- 61
2021-02-20 21:00:00 12.3 55 Este 72 Este 0 976.7 -- 61
2021-02-20 20:00:00 13.3 33 Este 47 Este 0 977.1 -- 58
2021-02-20 19:00:00 14.6 35 Este 56 Este 0 976.5 -- 55
2021-02-20 18:00:00 16.2 38 Este 59 Este 0 975.4 -- 53
2021-02-20 17:00:00 17.6 39 Este 61 Este 0 975.5 -- 50
2021-02-20 16:00:00 17.7 42 Este 57 Este 0 975.7 -- 46
2021-02-20 15:00:00 17 42 Este 59 Este 0 976.4 -- 49
2021-02-20 14:00:00 15.8 41 Este 66 Este 0 977.6 -- 52
2021-02-20 13:00:00 14.9 46 Este 68 Este 0 978.5 -- 55
2021-02-20 12:00:00 13.4 53 Este 66 Este 0 979 -- 59
2021-02-20 11:00:00 12 41 Este 63 Este 0 979.5 -- 62
2021-02-20 10:00:00 10.6 45 Este 62 Este 0 979.4 -- 64
2021-02-20 09:00:00 8.9 37 Este 51 Este 0 979.2 -0.8 69
2021-02-20 08:00:00 7.3 28 Sudeste 42 Este 0 979.6 -- 76
2021-02-20 07:00:00 7.5 26 Este 39 Este 0 979.7 -- 74
2021-02-20 06:00:00 7.7 23 Este 46 Este 0 980 -- 74
2021-02-20 05:00:00 8.4 26 Este 37 Este 0 979.8 -- 71
2021-02-20 04:00:00 9.3 23 Este 39 Este 0 980.1 -0.3 67
2021-02-20 03:00:00 10 30 Este 47 Este 0 980.7 -- 64
2021-02-20 02:00:00 10.3 24 Este 42 Este 0 980.8 -- 63
2021-02-20 01:00:00 10.5 31 Este 42 Este 0 980.4 -- 64
2021-02-20 00:00:00 11 31 Este 46 Este 0 980.6 -- 63
2021-02-19 23:00:00 10.9 24 Este 42 Este 0 980.8 0.1 65
2021-02-19 22:00:00 11.6 30 Este 42 Este 0 980.9 -- 62
2021-02-19 21:00:00 11.8 22 Este 35 Este 0 980.9 -- 60
2021-02-19 20:00:00 13.1 25 Este 36 Este 0 980.7 -- 59
2021-02-19 19:00:00 14.2 28 Este 35 Este 0 980.4 -- 58
2021-02-19 18:00:00 16.4 26 Este 44 Este 0 980.1 -- 48
2021-02-19 17:00:00 17.9 34 Este 46 Este 0 979.9 -1.8 43
2021-02-19 16:00:00 19.4 26 Este 38 Este 0 979.9 -- 39
2021-02-19 15:00:00 19.4 25 Este 35 Este 0 980.6 -- 35
2021-02-19 14:00:00 17.9 28 Este 40 Este 0 981.7 -- 44
2021-02-19 13:00:00 16.4 27 Este 37 Este 0 982.7 -- 51
2021-02-19 12:00:00 14.4 27 Este 35 Este 0 983.6 -- 58
2021-02-19 11:00:00 12.2 19 Este 31 Este 0 984 -- 68
2021-02-19 10:00:00 9.3 18 Este 27 Este 0 984.2 -- 82
2021-02-19 09:00:00 7.5 13 Sudeste 28 Sudeste 0 983.7 -- 89
2021-02-19 08:00:00 6.7 26 Este 35 Este 0 982.9 -- 91
2021-02-19 07:00:00 7.1 19 Este 30 Este 0 983 -- 90
2021-02-19 06:00:00 7.3 23 Este 31 Este 0 982.9 -- 88
2021-02-19 05:00:00 8.3 21 Este 33 Este 0 982.5 -- 85
2021-02-19 04:00:00 8.4 22 Este 30 Este 0 982.7 -- 86
2021-02-19 03:00:00 8.9 25 Este 30 Este 0 982.8 -- 84
2021-02-19 02:00:00 9.2 22 Este 27 Este 0 982.8 -- 84
2021-02-19 01:00:00 9.2 24 Este 31 Este 0 982.6 -- 83
2021-02-19 00:00:00 9.7 24 Este 30 Este 0 982.8 -- 80
2021-02-18 23:00:00 9.8 21 Este 24 Este 0 982.7 -- 77
2021-02-18 22:00:00 11.5 4 Sudeste 18 Este 0 982.5 -- 64
2021-02-18 21:00:00 12.5 16 Este 18 Este 0 981.9 -- 65
2021-02-18 20:00:00 13 17 Este 24 Este 0 981.3 -- 69
2021-02-18 19:00:00 14.4 18 Este 27 Este 0 980.5 -- 65
2021-02-18 18:00:00 17.1 18 Este 25 Este 0 979.8 -- 52
2021-02-18 17:00:00 18.5 10 Este 31 Este 0 979.6 -- 43
2021-02-18 16:00:00 18.5 20 Este 31 Este 0 979.6 -- 39
2021-02-18 15:00:00 18.5 25 Sudeste 36 Este 0 979.8 -- 38
2021-02-18 14:00:00 16.9 27 Este 37 Este 0 980.8 -- 52
2021-02-18 13:00:00 14.3 21 Este 35 Este 0 981.5 -- 66
2021-02-18 12:00:00 12.7 20 Este 31 Este 0 982 -- 71
2021-02-18 11:00:00 11.7 18 Este 27 Este 0 982.1 -- 75
2021-02-18 10:00:00 9.7 17 Este 28 Este 0 981.9 -- 85
2021-02-18 09:00:00 8.3 17 Este 27 Este 0 981.6 -- 88
2021-02-18 08:00:00 8.1 23 Este 31 Este 0 981.1 -- 88
2021-02-18 07:00:00 8.2 18 Sudeste 35 Este 0 981.2 -- 87
2021-02-18 06:00:00 9.3 24 Este 41 Este 0 981.2 -- 84
2021-02-18 05:00:00 9.4 24 Este 33 Este 0 981.2 -- 85
2021-02-18 04:00:00 9.6 19 Este 36 Este 0 981.6 -- 85
2021-02-18 03:00:00 10.3 23 Este 36 Este 0 981.9 -- 83
2021-02-18 02:00:00 9.7 17 Sudeste 28 Este 0 982.2 -- 87
2021-02-18 01:00:00 10.2 22 Este 35 Este 0 982.5 -- 85
2021-02-18 00:00:00 10.4 26 Este 33 Este 0 982.9 -- 84
2021-02-17 23:00:00 10.7 19 Este 28 Este 0 983.4 -- 83
2021-02-17 22:00:00 10.9 22 Este 30 Este 0 983.7 -- 82
2021-02-17 21:00:00 11.5 19 Este 29 Sudeste 0 983.2 -- 81
2021-02-17 20:00:00 11.7 14 Sudeste 24 Este 0 983.5 -- 80
2021-02-17 19:00:00 12.9 15 Este 32 Este 0 983.6 -- 75
2021-02-17 18:00:00 14.7 22 Este 35 Este 0 983.6 -- 64
2021-02-17 17:00:00 15.5 21 Este 32 Este 0 983.9 -- 58
2021-02-17 16:00:00 15.4 19 Este 28 Este 0 984.5 -- 57
2021-02-17 15:00:00 15.4 15 Sudeste 20 Sudeste 0 985.3 -- 55
2021-02-17 14:00:00 15.4 14 Sur 28 Este 0 986.2 -- 57
2021-02-17 13:00:00 15 22 Este 31 Este 0 986.8 -- 64
2021-02-17 12:00:00 13.6 24 Este 29 Este 0 987.4 -- 72
2021-02-17 11:00:00 10.7 22 Este 31 Este 0 988 -- 79
2021-02-17 10:00:00 7.3 23 Este 31 Este 0 988 -- 91
2021-02-17 09:00:00 6.3 9 Este 16 Este 0 988.1 -- 100
2021-02-17 08:00:00 4.9 12 Este 17 Este 0 987.7 -- 100
2021-02-17 07:00:00 4.7 2 Norte 13 Nordeste 0 987.6 -- 100
2021-02-17 06:00:00 5.1 13 Nordeste 16 Este 0 987.7 -- 99
2021-02-17 05:00:00 5.1 5 Norte 10 Norte 0 988 -- 99
2021-02-17 04:00:00 6.1 5 Oeste 6 Sudoeste 0 988.4 -- 96
2021-02-17 03:00:00 7 4 Norte 11 Norte 0 988.4 -- 96
2021-02-17 02:00:00 6.9 3 Este 11 Sudeste 0 988.8 -- 92
2021-02-17 01:00:00 6.9 9 Sudeste 11 Sudeste 0 988.7 -- 92
2021-02-17 00:00:00 7.7 3 Noroeste 9 Noroeste 0 989 -- 89
2021-02-16 23:00:00 8.8 2 Este 9 Sudeste 0 988.8 -- 86
2021-02-16 22:00:00 10.3 6 Sudeste 12 Sudeste 0 988.6 -- 81
2021-02-16 21:00:00 9.9 5 Sudeste 12 Sudeste 0 988.6 -- 82
2021-02-16 20:00:00 11.8 2 Noroeste 6 Norte 0 988.6 -- 76
2021-02-16 19:00:00 12.5 5 Norte 14 Este 0 988.3 -- 73
2021-02-16 18:00:00 14.3 7 Este 22 Este 0 987.6 -- 65
2021-02-16 17:00:00 15.2 17 Este 32 Este 0 987.6 -- 61
2021-02-16 16:00:00 15.2 24 Este 33 Este 0 987.6 -- 62
2021-02-16 15:00:00 15.3 27 Sudeste 36 Este 0 988.3 -- 62
2021-02-16 14:00:00 14.1 26 Sudeste 36 Este 0 989.2 -- 64
2021-02-16 13:00:00 13 27 Este 37 Este 0 990.5 -- 68
2021-02-16 12:00:00 12.1 24 Este 35 Este 0 990.9 -- 71
2021-02-16 11:00:00 11 28 Sudeste 38 Sudeste 0 991 -- 76
2021-02-16 10:00:00 8.5 17 Este 23 Este 0 991.6 -- 88
2021-02-16 09:00:00 7.4 13 Este -- -- -- 991.2 -- 91
2021-02-16 08:00:00 7.3 15 Este 28 Este 0 991 -- 92
2021-02-16 07:00:00 7.7 17 Este 25 Este 0 991.4 -- 91
2021-02-16 06:00:00 8.1 14 Este 21 Este 0 991.8 -- 89
2021-02-16 05:00:00 8 11 Este 20 Este 0 992.5 -- 89
2021-02-16 04:00:00 7.7 11 Este 17 Este 0 993 -- 89
2021-02-16 03:00:00 8.4 10 Este 22 Este 0 993.6 -- 87
2021-02-16 02:00:00 8.1 13 Este 21 Este 0 994.2 -- 88
2021-02-16 01:00:00 8.3 19 Este 41 Este 0 994.6 -- 86
2021-02-16 00:00:00 9.1 28 Este 46 Este 0 994.6 -- 83
2021-02-15 23:00:00 9.3 31 Este 40 Este 0 994.9 -- 83
2021-02-15 22:00:00 8.4 24 Este 36 Este 0 995.2 -- 85
2021-02-15 21:00:00 7.7 21 Este 28 Este 0 995.2 -- 87
2021-02-15 20:00:00 7.8 15 Este 21 Este 0 995.1 -- 86
2021-02-15 19:00:00 8.7 14 Este 31 Este 0 995.2 -- 83
2021-02-15 18:00:00 10.5 22 Este 37 Este 0 994.8 -- 75
2021-02-15 17:00:00 11.1 25 Este 33 Este 0 995 -- 73
2021-02-15 16:00:00 10.9 24 Este 35 Este 0 995.5 -- 74
2021-02-15 15:00:00 10.3 20 Este 31 Este 0 996.1 -- 76
2021-02-15 14:00:00 9.6 21 Este 28 Este 0 996.8 -- 78
2021-02-15 13:00:00 8.9 13 Sudeste 22 Este 0 998 -- 80
2021-02-15 12:00:00 8.2 15 Este 22 Sudeste 0 998.4 -- 81
2021-02-15 11:00:00 8 18 Sudeste 23 Sudeste 0 998.4 -- 81
2021-02-15 10:00:00 7.5 15 Este 22 Este 0 998.4 -- 84
2021-02-15 09:00:00 7.1 13 Este 23 Este 0 998 -- 85
2021-02-15 08:00:00 6.9 16 Este 24 Sudeste 0 997.3 -- 85
2021-02-15 07:00:00 6.7 16 Este 24 Este 0 997.2 -- 86
2021-02-15 06:00:00 6.7 16 Este 24 Este 0 997.3 -- 86
2021-02-15 05:00:00 6.8 18 Sudeste 27 Sudeste 0 997.1 -- 85
2021-02-15 04:00:00 7.1 15 Sudeste 27 Este 0 997.3 -- 85
2021-02-15 03:00:00 7.2 18 Sudeste 35 Este 0 997.5 -- 85
2021-02-15 02:00:00 7.2 19 Sudeste 33 Este 0 997.5 -- 85
2021-02-15 01:00:00 7.4 27 Este 39 Este 0 997.1 -- 85
2021-02-15 00:00:00 7.9 25 Este 37 Este 0 997.2 -- 84
2021-02-14 23:00:00 8.4 24 Este 38 Este 0 996.9 -- 84
2021-02-14 22:00:00 8.4 21 Este 32 Este 0 996.7 -- 86
2021-02-14 21:00:00 8.8 23 Este 39 Este 0 996.3 -- 85
2021-02-14 20:00:00 9.4 30 Este 46 Este 0 995.8 -- 83
2021-02-14 19:00:00 10.3 33 Este 47 Este 0 995 1.3 79
2021-02-14 18:00:00 11.2 34 Este 52 Este 0 994.6 0.5 75
2021-02-14 17:00:00 12.4 38 Este 51 Este 0 994.1 -- 70
2021-02-14 16:00:00 13 39 Este 52 Este 0 993.7 -- 66
2021-02-14 15:00:00 13.4 35 Este 48 Este 0 994.1 -- 64
2021-02-14 14:00:00 12.7 31 Este 43 Este 0 994.8 -- 66
2021-02-14 13:00:00 12.6 26 Este 38 Este 0 995 -- 66
2021-02-14 12:00:00 11.4 24 Este 32 Este 0 995.2 -- 71
2021-02-14 11:00:00 9.3 17 Este 24 Este 0 995.3 -- 79
2021-02-14 10:00:00 7.2 8 Este 14 Este 0 994.8 -- 90
2021-02-14 09:00:00 2.7 4 Nordeste 10 Nordeste 0 994.6 -- 97
2021-02-14 08:00:00 2.1 5 Sur 12 Este 0 993.8 -- 95
2021-02-14 07:00:00 2.6 2 Sur 6 Oeste 0 992.8 -- 99
2021-02-14 06:00:00 2.2 3 Noroeste 8 Sudeste 0 992.5 -- 96
2021-02-14 05:00:00 2.2 3 Este 14 Este 0 992.4 -- 93
2021-02-14 04:00:00 3 3 Oeste 11 Sur 0 992 -- 92
2021-02-14 03:00:00 4.3 6 Sudeste 14 Sudeste 0 992.1 -- 88
2021-02-14 02:00:00 6.8 12 Noroeste 14 Noroeste 0 991.5 -- 83
2021-02-14 01:00:00 6.8 9 Oeste 15 Sudoeste 0 991.3 -- 83
2021-02-14 00:00:00 6.3 4 Oeste 11 Noroeste 0 991.4 -- 84
2021-02-13 23:00:00 7.1 5 Sudoeste 17 Oeste 0 991.5 -- 82
2021-02-13 22:00:00 7.3 11 Noroeste 18 Oeste 0 991.4 -- 82
2021-02-13 21:00:00 8.3 16 Noroeste 21 Noroeste 0 991.1 -- 81
2021-02-13 20:00:00 9 14 Noroeste 19 Oeste 0 990.9 -- 79
2021-02-13 19:00:00 10.7 15 Oeste 27 Oeste 0 990.4 -- 73
2021-02-13 18:00:00 12.3 17 Oeste 24 Oeste 0 989.8 -- 68
2021-02-13 17:00:00 12.6 18 Oeste 25 Oeste 0 989.3 -- 67
2021-02-13 16:00:00 12.9 21 Noroeste 37 Noroeste 0 989.1 -- 65
2021-02-13 15:00:00 13.1 26 Noroeste 36 Noroeste 0 989.3 -- 61
2021-02-13 14:00:00 12.6 16 Oeste 28 Oeste 0 989.7 -- 66
2021-02-13 13:00:00 12 21 Oeste 32 Oeste 0 989.8 -- 67
2021-02-13 08:00:00 6.1 4 Sudoeste 21 Oeste 0 988.5 0.8 86
2021-02-13 07:00:00 6.6 18 Oeste 24 Noroeste 0 988.1 -0.1 87
2021-02-13 06:00:00 6.9 20 Noroeste 24 Noroeste 0 988 0.1 85
2021-02-13 05:00:00 6.9 21 Noroeste 28 Noroeste 0 987.7 -0.1 85
2021-02-13 04:00:00 8.3 12 Noroeste 32 Oeste 0 988.2 1 78
2021-02-13 03:00:00 9.1 20 Oeste 28 Oeste 0 987.9 1 76
2021-02-13 02:00:00 9.1 19 Oeste 29 Noroeste 0 987.8 0.9 78
2021-02-13 01:00:00 10.1 28 Noroeste 42 Noroeste 0 987.2 0.9 74
2021-02-13 00:00:00 10.9 30 Noroeste 45 Oeste 0 986.9 0.9 71
2021-02-12 23:00:00 11.6 32 Oeste 44 Oeste 0 986.9 1.6 70
2021-02-12 22:00:00 11.7 28 Oeste 43 Noroeste 0 986.3 2 70
2021-02-12 21:00:00 12 27 Oeste 49 Oeste 0 986 2.5 69
2021-02-12 20:00:00 12 32 Oeste 50 Oeste 0 985.3 2.5 69
2021-02-12 19:00:00 12.1 21 Noroeste 35 Noroeste 0 984.3 2.2 76
2021-02-12 18:00:00 12.3 27 Noroeste 49 Oeste 0 983.5 1.4 78
2021-02-12 17:00:00 13 32 Oeste 46 Noroeste 0 982.8 0.8 76
2021-02-12 16:00:00 13.8 31 Oeste 51 Noroeste 0 982.1 0.3 68
2021-02-12 15:00:00 13.2 23 Noroeste 46 Noroeste 0 982.1 0.4 74
2021-02-12 14:00:00 12.1 29 Oeste 42 Oeste 0 982 1.1 80
2021-02-12 13:00:00 11.7 24 Oeste 44 Oeste 0.4 981.8 1.6 81
2021-02-12 12:00:00 11.6 8 Oeste 22 Oeste 0 981.7 1.9 90
2021-02-12 11:00:00 11.4 2 Noroeste 9 Noroeste 0 980.9 1.7 90
2021-02-12 10:00:00 10.6 6 Noroeste 12 Este 0.4 980.2 0.9 92
2021-02-12 09:00:00 10.3 6 Sudeste 22 Este 0.8 979.8 -- 89
2021-02-12 08:00:00 9.7 19 Este 30 Este 0.4 979.2 -- 90
2021-02-12 07:00:00 9.6 21 Este 33 Este 0.4 979.3 -- 88
2021-02-12 06:00:00 9.4 21 Sudeste 32 Este 0 979.4 -- 85
2021-02-12 05:00:00 9.4 20 Este 31 Este 0 979.8 -- 86
2021-02-12 04:00:00 9.4 23 Este 32 Este 0 980 -- 85
2021-02-12 03:00:00 8.5 20 Este 27 Este 0 980.6 -- 88
2021-02-12 02:00:00 9.6 22 Este 29 Este 0 980.5 -- 84
2021-02-12 01:00:00 9.1 19 Este 27 Este 0 980.8 -- 87
2021-02-12 00:00:00 9.9 21 Este 26 Este 0 981.2 -- 84
2021-02-11 23:00:00 11 15 Este 17 Este 0 981.6 -- 79
2021-02-11 22:00:00 10.4 3 Sudeste 12 Este 0 982 -- 80
2021-02-11 21:00:00 11.6 11 Este 13 Este 0 981.8 -- 74
2021-02-11 20:00:00 12.4 5 Sudeste 11 Sudeste 0 982.1 -- 72
2021-02-11 19:00:00 13.8 9 Este 10 Este 0 981.5 -- 66
2021-02-11 18:00:00 16.2 3 Sur 7 Noroeste 0 981.5 -- 55
2021-02-11 17:00:00 16.9 6 Noroeste 10 Noroeste 0 981.5 -- 52
2021-02-11 16:00:00 17.4 3 Nordeste 11 Este 0 981.4 -- 49
2021-02-11 15:00:00 16.6 4 Nordeste 13 Nordeste 0 981.8 -- 47
2021-02-11 14:00:00 15.2 6 Norte 11 Nordeste 0 982.4 -- 51
2021-02-11 13:00:00 13.7 4 Nordeste 10 Norte 0 982.7 -- 56
2021-02-11 12:00:00 11.6 3 Noroeste 11 Sudoeste 0 983.3 -- 65
2021-02-11 11:00:00 9.9 3 Sudoeste 8 Noroeste 0 982.8 -- 75
2021-02-11 10:00:00 7 0 Calma 7 Este 0 982.9 -- 86
2021-02-11 09:00:00 3.7 0 Calma 6 Sur 0 982.8 -- 100
2021-02-11 08:00:00 2.7 0 Calma 8 Sudeste 0 982.2 -- 100
2021-02-11 07:00:00 2.9 5 Norte 7 Norte 0 982.1 -- 100
2021-02-11 06:00:00 3.1 2 Este 10 Sudoeste 0 981.9 -- 99
2021-02-11 05:00:00 2.8 3 Noroeste 5 Nordeste 0 981.6 -- 97
2021-02-11 04:00:00 3.1 2 Noroeste 6 Sudoeste 0 982 -- 96
2021-02-11 03:00:00 2.9 5 Oeste 9 Noroeste 0 981.8 -- 95
2021-02-11 02:00:00 3.4 4 Sudeste 7 Noroeste 0 981.5 -- 97
2021-02-11 01:00:00 2.8 3 Noroeste 7 Norte 0 981.4 -- 92
2021-02-11 00:00:00 4 3 Norte 6 Noroeste 0 981 -- 89
2021-02-10 23:00:00 5 4 Este 8 Sur 0 980.4 -- 87
2021-02-10 22:00:00 5.2 3 Este 9 Norte 0 980 -- 84
2021-02-10 21:00:00 7.7 5 Este 8 Norte 0 979.7 -- 76
2021-02-10 20:00:00 8.6 6 Nordeste 16 Sur 0 979.6 -- 71
2021-02-10 19:00:00 9.8 5 Sur 25 Norte 0 978.3 -- 68
2021-02-10 18:00:00 12.4 19 Norte 32 Noroeste 0 977.2 -- 56
2021-02-10 17:00:00 13.6 21 Noroeste 43 Noroeste 0 976.9 -- 51
2021-02-10 16:00:00 13.8 28 Noroeste 45 Noroeste 0 975.6 -- 49
2021-02-10 15:00:00 13.9 33 Noroeste 54 Noroeste 0 975.2 -- 46
2021-02-10 14:00:00 13.1 30 Noroeste 46 Oeste 0 974.7 -- 49
2021-02-10 13:00:00 11.2 29 Noroeste 42 Noroeste 0 974.2 -- 59
2021-02-10 12:00:00 10.1 22 Noroeste 31 Noroeste 0 973.9 -- 68
2021-02-10 11:00:00 8.4 13 Noroeste 26 Noroeste 0 972.8 -- 78
2021-02-10 10:00:00 6.8 12 Noroeste 16 Noroeste 0 971.3 -- 86
2021-02-10 09:00:00 6.1 10 Noroeste 29 Noroeste 0 969.5 -- 91
2021-02-10 08:00:00 6.4 17 Noroeste 25 Noroeste 0 967.6 -- 87
2021-02-10 07:00:00 7.4 10 Sur 26 Sur 0.2 965.9 -- 82
2021-02-10 06:00:00 8.4 21 Sur 31 Sur 0.2 965.4 -- 73
2021-02-10 05:00:00 7.9 10 Sur 23 Sur 0 965.1 -- 71
2021-02-10 04:00:00 8 15 Sur 23 Sur 0 965.5 -- 70
2021-02-10 03:00:00 8.3 14 Sur 22 Sur 0 965.9 -- 69
2021-02-10 02:00:00 8.5 12 Sur 22 Sudoeste 0 966.4 -- 68
2021-02-10 01:00:00 8.7 19 Sur 36 Sur 0 966.3 -- 65
2021-02-10 00:00:00 8.1 22 Sur 31 Sur 0 965.9 -- 70
2021-02-09 23:00:00 8.7 13 Sur 25 Sudoeste 0 966.1 -- 68
2021-02-09 22:00:00 7.3 8 Sudeste 17 Nordeste 0 966.1 -- 87
2021-02-09 21:00:00 7.5 11 Sur 25 Sur 0 965.8 -- 81
2021-02-09 20:00:00 7.6 14 Sur 23 Sur 0 965.1 -- 73
2021-02-09 19:00:00 7.4 15 Sudeste 29 Este 0 965 -- 91
2021-02-09 18:00:00 8.4 24 Este 37 Este 0 964.2 -- 93
2021-02-09 17:00:00 8.1 28 Este 42 Este 0.4 963.5 -- 94
2021-02-09 16:00:00 8.2 27 Este 46 Este 0.8 964.4 -- 89
2021-02-09 15:00:00 8.7 34 Este 51 Este 0 963.5 -- 82
2021-02-09 14:00:00 9.2 27 Este 44 Este 0 964.5 -- 79
2021-02-09 13:00:00 9.9 29 Este 40 Este 0 965.6 -- 75
2021-02-09 12:00:00 9.9 25 Este 36 Este 0 967 -- 73
2021-02-09 11:00:00 8.7 23 Este 31 Este 0 967.2 -- 79
2021-02-09 10:00:00 9 15 Este 29 Este 0 967.9 -- 72
2021-02-09 09:00:00 9 15 Sudoeste 43 Sudoeste 0 968.7 -- 68
2021-02-09 08:00:00 9.4 30 Sudoeste 44 Sudoeste 0 968.5 -- 66
2021-02-09 07:00:00 7.4 12 Sudeste 21 Este 0 968.8 -- 82
2021-02-09 06:00:00 5.6 19 Este 24 Este 0 969.1 -- 92
2021-02-09 05:00:00 5.2 13 Este 23 Este 0 969.3 -- 93
2021-02-09 04:00:00 4.2 4 Noroeste 6 Noroeste 0 969.9 -- 93
2021-02-09 03:00:00 4.6 4 Norte 9 Sudeste 0 970.3 -- 90
2021-02-09 02:00:00 5.5 9 Sudeste 10 Sudeste 0 969.9 -- 87
2021-02-09 01:00:00 6.2 9 Sur 12 Sur 0 970 -- 87
2021-02-09 00:00:00 7.9 5 Sudoeste 14 Oeste 0 969.3 -- 82
2021-02-08 23:00:00 8.6 11 Oeste 31 Oeste 0 968.6 -- 75
2021-02-08 22:00:00 9.2 23 Noroeste 30 Oeste 0 967.8 -- 75
2021-02-08 21:00:00 9.3 12 Oeste 23 Oeste 0 967.3 -- 76
2021-02-08 20:00:00 8.7 6 Noroeste 12 Noroeste 0 966.6 -- 83
2021-02-08 19:00:00 8.9 2 Nordeste 21 Sudoeste 0 965.5 -- 80
2021-02-08 18:00:00 10.3 7 Sudoeste 12 Sudoeste 0 964.7 -- 78
2021-02-08 17:00:00 10.9 7 Sudoeste 47 Noroeste 0.6 964.3 -- 76
2021-02-08 16:00:00 12.7 4 Sudoeste 22 Oeste 0 964 -- 63
2021-02-08 15:00:00 13.4 12 Oeste 21 Noroeste 0 963.8 -- 57
2021-02-08 14:00:00 13 12 Noroeste 19 Noroeste 0 964.2 -- 60
2021-02-08 13:00:00 11.4 4 Oeste 12 Sur 0 964.9 -- 68
2021-02-08 12:00:00 8.1 4 Sudeste 9 Sudoeste 0 965.1 -- 83
2021-02-08 11:00:00 6 5 Sur 10 Sur 0 964.5 -- 91
2021-02-08 10:00:00 6.1 8 Sur 28 Este 0 964.3 -- 87
2021-02-08 09:00:00 6.1 20 Este 30 Este 0 964 -- 85
2021-02-08 08:00:00 5.8 23 Este 32 Este 0 963.8 -- 87
2021-02-08 07:00:00 6.1 17 Este 28 Este 0 964.2 -- 85
2021-02-08 06:00:00 5.9 18 Este 27 Este 0 964.7 -- 86
2021-02-08 05:00:00 5.8 19 Este 27 Este 0 964.9 -- 87
2021-02-08 04:00:00 5.5 18 Este 22 Este 0 965.8 -- 90
2021-02-08 03:00:00 5.3 11 Este 13 Este 0 966.9 -- 91
2021-02-08 02:00:00 5.5 4 Nordeste 10 Nordeste 0 967.4 -- 91
2021-02-08 01:00:00 5.5 8 Este 10 Este 0 967.9 -- 87
2021-02-08 00:00:00 6.4 4 Norte 6 Norte 0 968.2 -- 85
2021-02-07 23:00:00 7.1 0 Calma 6 Sudeste 0 968.7 -- 81
2021-02-07 22:00:00 7.6 0 Calma 5 Noroeste 0 969.1 -- 79
2021-02-07 21:00:00 7.8 3 Sudeste 10 Norte 0 969.4 -- 76
2021-02-07 20:00:00 8.3 9 Norte 18 Noroeste 0 969.3 -- 68
2021-02-07 19:00:00 9 8 Noroeste 19 Noroeste 0 969.4 -- 63
2021-02-07 18:00:00 10 10 Oeste 23 Noroeste 0 969.3 -- 57
2021-02-07 17:00:00 10.9 15 Noroeste 24 Noroeste 0 969.1 -- 44
2021-02-07 16:00:00 11.5 14 Noroeste 32 Noroeste 0 969.4 -- 50
2021-02-07 15:00:00 10.2 24 Noroeste 38 Noroeste 0 969.8 -- 57
2021-02-07 14:00:00 10 22 Noroeste 41 Noroeste 0 970.8 -- 57
2021-02-07 13:00:00 9.5 30 Noroeste 40 Noroeste 0 971.6 -- 58
2021-02-07 12:00:00 7.8 30 Noroeste 45 Noroeste 0 972.2 -- 63
2021-02-07 11:00:00 8.1 27 Noroeste 45 Oeste 0 972.1 -- 65
2021-02-07 10:00:00 6.4 28 Oeste 45 Oeste 0 972 -- 68
2021-02-07 09:00:00 4.8 21 Noroeste 47 Oeste 0 972.1 -- 76
2021-02-07 08:00:00 3.5 9 Noroeste 21 Noroeste 0 971.8 -- 84
2021-02-07 07:00:00 4.1 15 Noroeste 32 Noroeste 0 971.7 -- 82
2021-02-07 06:00:00 4.1 13 Noroeste 32 Oeste 0 971.8 -- 83
2021-02-07 05:00:00 4.6 22 Noroeste 32 Oeste 0 971.9 -- 79
2021-02-07 04:00:00 4.5 21 Noroeste 30 Noroeste 0 972.2 -- 82
2021-02-07 03:00:00 4.6 17 Noroeste 26 Noroeste 0 972.3 -- 82
2021-02-07 02:00:00 5.7 17 Noroeste 28 Noroeste 0 972.2 -- 83
2021-02-07 01:00:00 6.3 19 Oeste 27 Noroeste 0 972.3 -- 86
2021-02-07 00:00:00 6.3 19 Noroeste 33 Noroeste 0 972 -- 89
2021-02-06 23:00:00 7 23 Noroeste 33 Noroeste 0 972 -- 86
2021-02-06 22:00:00 7.2 18 Noroeste 26 Oeste 0 971.4 -- 87
2021-02-06 21:00:00 7.2 18 Noroeste 32 Noroeste 0.2 970.8 -- 89
2021-02-06 20:00:00 7.6 26 Noroeste 41 Noroeste 0 970.3 -- 87
2021-02-06 19:00:00 8.2 30 Noroeste 46 Oeste 0 969.5 -- 87
2021-02-06 18:00:00 8.8 30 Noroeste 44 Noroeste 0 968.6 -- 83
2021-02-06 17:00:00 9 32 Oeste 45 Oeste 0 967.9 -- 83
2021-02-06 16:00:00 9.4 31 Oeste 42 Noroeste 0 967.1 -- 84
2021-02-06 15:00:00 9.5 24 Oeste 41 Noroeste 0.2 966.8 -- 87
2021-02-06 14:00:00 10 28 Noroeste 43 Noroeste 0 966.7 -- 85
2021-02-06 13:00:00 10.6 18 Noroeste 26 Noroeste 0 966.9 -- 93
2021-02-06 12:00:00 11.7 12 Sudeste 20 Este 0 966.4 -- 92
2021-02-06 11:00:00 9.7 15 Este 22 Este 0 966.2 -- 100
2021-02-06 10:00:00 9.3 16 Este 21 Este 1.6 966.2 -- 100
2021-02-06 09:00:00 9.1 9 Este 16 Este 1.8 966.4 -- 100
2021-02-06 08:00:00 9.2 11 Este 14 Este 0.4 966.1 -- 100
2021-02-06 07:00:00 9.2 5 Oeste 14 Nordeste 0.4 965.8 -- 98
2021-02-06 06:00:00 9.4 4 Nordeste 13 Sur 3 966.2 -- 98
2021-02-06 05:00:00 8.7 7 Sudoeste 12 Oeste 0.6 966.5 -- 99
2021-02-06 04:00:00 8.7 4 Sur 12 Nordeste 0.2 967 -- 96
2021-02-06 03:00:00 8.8 8 Norte 12 Oeste 0 968.1 -- 92
2021-02-06 02:00:00 8.2 6 Norte 12 Noroeste 0 969 -- 97
2021-02-06 01:00:00 7.9 5 Sudeste 13 Norte 0 969.4 -- 97
2021-02-06 00:00:00 7.9 4 Noroeste 10 Noroeste 0 969.3 -- 94
2021-02-05 23:00:00 7.3 2 Noroeste 8 Sur 0 969.5 -- 91
2021-02-05 22:00:00 8.2 4 Este 8 Sudeste 0 969.3 -- 89
2021-02-05 21:00:00 8.9 4 Este 7 Noroeste 0 969.5 -- 87
2021-02-05 20:00:00 10.3 4 Noroeste 7 Noroeste 0 969.8 -- 83
2021-02-05 19:00:00 12 3 Oeste 9 Sudoeste 0 969.4 -- 79
2021-02-05 18:00:00 13.3 8 Sudoeste 15 Sudoeste 0 969.3 -- 74
2021-02-05 17:00:00 14.4 10 Sur 22 Sudoeste 0 969.6 -- 70
2021-02-05 16:00:00 14.1 17 Sudoeste 22 Sudoeste 0 970.1 -- 71
2021-02-05 15:00:00 14.7 13 Sudoeste 18 Sudoeste 0 970.6 -- 67
2021-02-05 14:00:00 14.4 14 Sur 23 Sur 0 971.5 -- 69
2021-02-05 13:00:00 14.7 15 Sudeste 28 Sudeste 0 972.4 -- 67
2021-02-05 12:00:00 13.9 13 Este 19 Sudeste 0 973.1 -- 68
2021-02-05 11:00:00 12.5 3 Sudeste 6 Este 0 973.5 -- 75
2021-02-05 10:00:00 10.2 0 Calma 7 Oeste 0 974.1 -- 87
2021-02-05 09:00:00 7.8 7 Oeste 13 Norte 0 973.9 -- 92
2021-02-05 08:00:00 8.1 11 Norte 13 Norte 0 973.7 -- 92
2021-02-05 07:00:00 8.2 8 Norte 9 Norte 0 974.1 -- 89
2021-02-05 06:00:00 9.2 3 Sudoeste 7 Sudeste 0 974.3 -- 85
2021-02-05 05:00:00 9.6 4 Sur 14 Sur 0 974.6 -- 85
2021-02-05 04:00:00 9.5 9 Sur 10 Sur 0 975 -- 84
2021-02-05 03:00:00 10.6 5 Sudeste 17 Sudeste 0 975.1 -- 79
2021-02-05 02:00:00 11.1 17 Sudeste 28 Este 0 975.6 -- 80
2021-02-05 01:00:00 10.4 18 Sudeste 31 Este 0 975.4 -- 82
2021-02-05 00:00:00 10.9 24 Este 31 Este 0 975.4 -- 80
2021-02-04 23:00:00 10.9 19 Este 28 Este 0 975.3 -- 78
2021-02-04 22:00:00 11 10 Nordeste 21 Este 0 975 -- 80
2021-02-04 21:00:00 11.9 14 Este 19 Este 0 974.5 -- 75
2021-02-04 20:00:00 12.1 9 Este 19 Este 0 974.2 -- 74
2021-02-04 19:00:00 13.4 13 Este 18 Este 0 973.7 -- 70
2021-02-04 18:00:00 15.7 12 Este 36 Este 0 973.1 -- 61
2021-02-04 17:00:00 16.9 24 Este 36 Este 0 972.8 -- 55
2021-02-04 16:00:00 17.5 26 Este 35 Este 0 973.3 -- 53
2021-02-04 15:00:00 17.5 18 Este 30 Este 0 973.8 -- 54
2021-02-04 14:00:00 17.3 20 Este 33 Sudeste -- 974.3 -- 57
2021-02-04 13:00:00 16.3 21 Sudeste 31 Sudeste 0 975.4 -- 60
2021-02-04 12:00:00 15.5 19 Sudeste 27 Este 0 976.5 -- 63
2021-02-04 11:00:00 13.6 18 Este 27 Este 0 977 -- 71
2021-02-04 10:00:00 12 13 Este 19 Sudeste 0 977 -- 77
2021-02-04 09:00:00 10.3 12 Este 24 Este 0 976.9 -- 82
2021-02-04 08:00:00 10.2 20 Este 27 Este 0 976.5 -- 82
2021-02-04 07:00:00 10.3 17 Este 27 Este 0 976.5 -- 82
2021-02-04 06:00:00 11.1 19 Este 28 Este 0 976.3 -- 78
2021-02-04 05:00:00 11.1 18 Este 30 Este 0 976.2 -- 78
2021-02-04 04:00:00 11 16 Este 31 Este 0 976.5 -- 78
2021-02-04 03:00:00 11 13 Sudeste 27 Este 0 976.8 -- 79
2021-02-04 02:00:00 10.7 18 Este 29 Este 0 976.9 -- 80
2021-02-04 01:00:00 11.5 18 Este 24 Este 0 977.3 -- 76
2021-02-04 00:00:00 11.2 20 Este 23 Este 0 977.1 -- 76
2021-02-03 23:00:00 10 17 Este 24 Este 0 977.4 -- 82
2021-02-03 22:00:00 10.6 19 Este 23 Este 0 977.2 -- 81
2021-02-03 21:00:00 11.3 2 Sur 13 Este 0 977.4 -- 77
2021-02-03 20:00:00 12.6 3 Sur 6 Este 0 977.3 -- 72
2021-02-03 19:00:00 14 3 Este 18 Sudoeste 0 976.8 -- 68
2021-02-03 18:00:00 15.7 10 Sudoeste 15 Sudoeste 0 976.6 -- 64
2021-02-03 17:00:00 17 12 Sudoeste 23 Sudoeste 0 976.4 -- 54
2021-02-03 16:00:00 17.6 17 Sudoeste 37 Sudoeste 0 976.5 -- 53
2021-02-03 15:00:00 17.4 28 Sudoeste 41 Sudoeste 0 976.4 -- 52
2021-02-03 14:00:00 17 25 Sur 37 Sur 0 976.7 -- 52
2021-02-03 13:00:00 16.7 15 Sur 37 Sur 0 977.1 -- 54
2021-02-03 12:00:00 15.9 17 Sur 24 Sur 0 977.7 -- 56
2021-02-03 11:00:00 13.5 15 Sudeste 31 Sudeste 0 977.8 -- 62
2021-02-03 10:00:00 11.2 22 Sudeste 38 Sudeste 0 977.5 -- 67
2021-02-03 09:00:00 10.8 5 Sudoeste 33 Este 0 976.8 -- 69
2021-02-03 08:00:00 8.6 21 Este 30 Este 0 976.2 -- 79
2021-02-03 07:00:00 7.5 18 Este 31 Sudeste 0 975.9 -- 85
2021-02-03 06:00:00 7.8 26 Este 35 Este 0 975.7 -- 82
2021-02-03 05:00:00 8.4 19 Este 31 Este 0 976.3 -- 80
2021-02-03 04:00:00 9.9 12 Sudeste 33 Este 0 976.1 -- 75
2021-02-03 03:00:00 8.4 19 Sudeste 33 Sur 0 976.8 -- 83
2021-02-03 02:00:00 13.7 25 Sur 34 Sur 0 977 -- 59
2021-02-03 01:00:00 11 13 Sudeste 24 Sur 0 976.9 -- 72
2021-02-03 00:00:00 7.6 9 Sudeste 13 Sudeste 0 977.6 -- 86
2021-02-02 23:00:00 9.2 5 Norte 10 Nordeste 0 977.8 -- 81
2021-02-02 22:00:00 12.2 5 Este 18 Sudeste 0 977.8 -- 71
2021-02-02 21:00:00 11.9 15 Sudeste 25 Oeste 0 977.6 -- 70
2021-02-02 20:00:00 14.7 26 Oeste 35 Sudoeste 0 977.2 -- 60
2021-02-02 19:00:00 14.8 10 Sur 15 Oeste 0 977.2 -- 65
2021-02-02 18:00:00 16.2 9 Sudoeste 15 Sur 0 977.5 -- 60
2021-02-02 17:00:00 17.9 15 Sudoeste 30 Sudoeste 0 977.4 -- 51
2021-02-02 16:00:00 18.5 18 Sur 40 Sudoeste 0 977.3 -- 47
2021-02-02 15:00:00 19.4 18 Sudoeste 32 Sudoeste 0 977.9 -- 49
2021-02-02 14:00:00 18.8 19 Sudoeste 33 Sur 0 978.3 -- 48
2021-02-02 13:00:00 17.8 22 Sur 29 Sur 0 979.4 -- 53
2021-02-02 12:00:00 15.5 20 Este 26 Este 0 980.2 -- 66
2021-02-02 11:00:00 12.4 9 Este 15 Este 0 980.6 -- 79
2021-02-02 10:00:00 7.5 7 Este 14 Este 0 980.4 -- 100
2021-02-02 09:00:00 4.8 4 Oeste 8 Sudeste 0 980.3 -- 100
2021-02-02 08:00:00 4 5 Sur 8 Sudeste 0 979.8 -- 98
2021-02-02 07:00:00 4.5 4 Noroeste 8 Norte 0 979.4 -- 98
2021-02-02 06:00:00 4.8 6 Noroeste 9 Norte 0 979.1 -- 98
2021-02-02 05:00:00 5.3 5 Norte 8 Norte 0 979.3 -- 98
2021-02-02 04:00:00 5.5 4 Sudeste 6 Noroeste 0 979.7 -- 93
2021-02-02 03:00:00 6.7 2 Este 9 Nordeste 0 979.7 -- 93
2021-02-02 02:00:00 7.7 3 Oeste 12 Sur 0 979.6 -- 91
2021-02-02 01:00:00 8.7 5 Norte 8 Norte 0 979.6 -- 88
2021-02-02 00:00:00 9.4 5 Noroeste 7 Noroeste 0 979.1 -- 86
2021-02-01 23:00:00 9.9 4 Este 6 Este 0 978.9 -- 84
2021-02-01 22:00:00 10.4 3 Nordeste 9 Nordeste 0 978.9 -- 82
2021-02-01 21:00:00 10.7 6 Sudeste 8 Sudeste 0 978.9 -- 79
2021-02-01 20:00:00 11.6 8 Sur 10 Sur 0 978.7 -- 76
2021-02-01 19:00:00 12.9 9 Norte 12 Noroeste 0 977.8 -- 72
2021-02-01 18:00:00 14.2 10 Noroeste 21 Noroeste 0 977.4 -- 66
2021-02-01 17:00:00 15.5 10 Norte 28 Noroeste 0 977 -- 58
2021-02-01 16:00:00 15 17 Noroeste 37 Noroeste 0 976.3 -- 58
2021-02-01 15:00:00 15.5 26 Noroeste 42 Noroeste 0 975.9 -- 56
2021-02-01 14:00:00 16.1 31 Noroeste 49 Noroeste 0 975.9 -- 51
2021-02-01 13:00:00 15.5 28 Noroeste 45 Noroeste 0 976.2 -- 51
2021-02-01 12:00:00 14.8 28 Noroeste 49 Noroeste 0 976 -- 51
2021-02-01 11:00:00 14.2 30 Noroeste 45 Oeste 0 975.6 -- 54
2021-02-01 10:00:00 12.7 27 Oeste 43 Oeste 0 974.7 -- 58
2021-02-01 09:00:00 11.1 26 Noroeste 48 Noroeste 0 973.8 -- 64
2021-02-01 08:00:00 11.3 34 Oeste 50 Oeste 0 972.7 -- 62
2021-02-01 07:00:00 11.4 34 Oeste 60 Oeste 0 972.4 -- 62
2021-02-01 06:00:00 11.8 35 Oeste 69 Noroeste 0 972 -- 60
2021-02-01 05:00:00 12.7 46 Oeste 68 Noroeste 0 971.4 -- 56
2021-02-01 04:00:00 12.9 46 Oeste 72 Oeste 0 971 -- 55
2021-02-01 03:00:00 13.6 50 Oeste 73 Noroeste 0 970.5 -- 54
2021-02-01 02:00:00 14 49 Noroeste 77 Noroeste 0 970.2 -- 54
2021-02-01 01:00:00 14.2 53 Noroeste 73 Noroeste 0 970 -- 55
2021-02-01 00:00:00 7.2 8 Noroeste 13 Noroeste 0 970.3 -- 91
2021-01-31 23:00:00 7.4 3 Norte 9 Oeste 0 969.7 -- 91
2021-01-31 22:00:00 7.8 7 Oeste 18 Este 0 969.9 -- 88
2021-01-31 21:00:00 9.4 5 Sudeste 21 Este 0 969.8 -- 84
2021-01-31 20:00:00 10.1 8 Este 14 Este 0 970.3 -- 81
2021-01-31 19:00:00 12.3 4 Sudeste 13 Sudeste 0 971 -- 75
2021-01-31 18:00:00 14 8 Sudeste 13 Norte 0 971.2 -- 69
2021-01-31 17:00:00 15.7 10 Noroeste 27 Noroeste 0 971.4 -- 61
2021-01-31 16:00:00 15.9 13 Noroeste 35 Oeste 0 971.7 -- 60
2021-01-31 15:00:00 15.4 21 Noroeste 30 Noroeste 0.2 972 -- 59
2021-01-31 14:00:00 13.1 12 Noroeste 27 Noroeste 0 973.2 -- 62
2021-01-31 13:00:00 12.2 21 Noroeste 33 Noroeste 0 974 -- 62
2021-01-31 12:00:00 12.3 18 Oeste 31 Noroeste 0 975.1 -- 60
2021-01-31 11:00:00 11.1 22 Noroeste 43 Noroeste 0 975.1 -- 60
2021-01-31 10:00:00 11.4 29 Noroeste 42 Noroeste 0 975.2 -- 58
2021-01-31 09:00:00 10.3 23 Noroeste 41 Noroeste 0 974.9 -- 62
2021-01-31 08:00:00 9.5 21 Noroeste 30 Noroeste 0 974 -- 66
2021-01-31 07:00:00 9 17 Oeste 34 Noroeste 0 973.6 -- 71
2021-01-31 06:00:00 9 21 Noroeste 32 Noroeste 0 973.1 -- 70
2021-01-31 05:00:00 8.9 21 Noroeste 39 Noroeste 0 972.9 -- 69
2021-01-31 04:00:00 9.1 22 Noroeste 38 Noroeste 0 972.7 -- 66
2021-01-31 03:00:00 9.3 31 Oeste 46 Oeste 0 972.5 -- 64
2021-01-31 02:00:00 7.8 9 Sudoeste 16 Oeste 0 972.6 -- 80
2021-01-31 01:00:00 7.1 5 Sudeste 8 Este 0 972.8 -- 87
2021-01-31 00:00:00 7 4 Sur 8 Sur 0 972.6 -- 87